Wetterdaten: Woche 10.06.13 - 16.06.13 (KW24)
Datum Zeit Temperatur Luftfeuchte Luftdruck Niederschlag Windrichtung Sonnenschein Solar Wind
10.06.2013 00:00 13,1 C 87 % 1005,0 hPa 0,0 l/m N 0,00 h 0 W/m 1,9 km/h (1 Bft)
10.06.2013 01:00 12,7 C 90 % 1005,1 hPa 0,0 l/m N 0,00 h 0 W/m 1,2 km/h (1 Bft)
10.06.2013 02:00 12,7 C 90 % 1005,1 hPa 11,6 l/m SW 0,00 h 0 W/m 10,2 km/h (2 Bft)
10.06.2013 03:00 11,9 C 96 % 1005,1 hPa 3,2 l/m W-SW 0,00 h 0 W/m 6,6 km/h (2 Bft)
10.06.2013 04:00 11,7 C 96 % 1005,4 hPa 7,4 l/m W-NW 0,00 h 0 W/m 10,9 km/h (2 Bft)
10.06.2013 05:00 11,7 C 97 % 1005,2 hPa 5,6 l/m W 0,00 h 0 W/m 17,0 km/h (3 Bft)
10.06.2013 06:00 11,8 C 97 % 1005,6 hPa 5,8 l/m W 0,00 h 7 W/m 10,7 km/h (2 Bft)
10.06.2013 07:00 11,7 C 97 % 1006,5 hPa 5,0 l/m W 0,00 h 14 W/m 9,5 km/h (2 Bft)
10.06.2013 08:00 11,7 C 98 % 1006,9 hPa 1,8 l/m SW 0,00 h 35 W/m 9,4 km/h (2 Bft)
10.06.2013 09:00 11,5 C 98 % 1007,6 hPa 0,0 l/m S-SW 0,00 h 59 W/m 14,5 km/h (3 Bft)
10.06.2013 10:00 11,8 C 99 % 1007,9 hPa 0,0 l/m S-SW 0,00 h 126 W/m 13,6 km/h (3 Bft)
10.06.2013 11:00 13,3 C 98 % 1008,1 hPa 0,0 l/m SW 0,00 h 219 W/m 16,0 km/h (3 Bft)
10.06.2013 12:00 14,1 C 93 % 1008,3 hPa 0,0 l/m W-SW 0,08 h 289 W/m 21,6 km/h (4 Bft)
10.06.2013 13:00 14,8 C 90 % 1008,3 hPa 0,0 l/m SW 0,17 h 390 W/m 20,6 km/h (4 Bft)
10.06.2013 14:00 15,8 C 84 % 1008,4 hPa 0,0 l/m W-SW 0,33 h 525 W/m 26,6 km/h (4 Bft)
10.06.2013 15:00 16,2 C 81 % 1008,3 hPa 0,0 l/m W-SW 0,33 h 409 W/m 27,5 km/h (4 Bft)
10.06.2013 16:00 15,6 C 81 % 1008,4 hPa 0,0 l/m W 0,00 h 103 W/m 18,0 km/h (3 Bft)
10.06.2013 17:00 14,1 C 89 % 1009,1 hPa 9,8 l/m W 0,00 h 29 W/m 9,7 km/h (2 Bft)
10.06.2013 18:00 13,3 C 97 % 1009,6 hPa 0,0 l/m W-SW 0,00 h 52 W/m 5,5 km/h (1 Bft)
10.06.2013 19:00 13,3 C 97 % 1009,9 hPa 1,4 l/m N 0,00 h 17 W/m 2,1 km/h (1 Bft)
10.06.2013 20:00 13,1 C 98 % 1010,3 hPa 0,8 l/m N 0,00 h 10 W/m 1,5 km/h (1 Bft)
10.06.2013 21:00 12,9 C 98 % 1011,0 hPa 4,0 l/m W 0,00 h 0 W/m 2,4 km/h (1 Bft)
10.06.2013 22:00 12,6 C 98 % 1011,6 hPa 1,6 l/m W-NW 0,00 h 0 W/m 6,7 km/h (2 Bft)
10.06.2013 23:00 12,6 C 98 % 1011,9 hPa 0,0 l/m NW 0,00 h 0 W/m 5,2 km/h (1 Bft)
11.06.2013 00:00 12,6 C 98 % 1012,2 hPa 1,2 l/m NW 0,00 h 0 W/m 5,1 km/h (1 Bft)
11.06.2013 01:00 12,4 C 98 % 1012,4 hPa 0,0 l/m W-NW 0,00 h 0 W/m 9,0 km/h (2 Bft)
11.06.2013 02:00 12,4 C 98 % 1012,5 hPa 0,4 l/m W-NW 0,00 h 0 W/m 10,1 km/h (2 Bft)
11.06.2013 03:00 12,3 C 98 % 1012,6 hPa 0,4 l/m N-NW 0,00 h 0 W/m 8,6 km/h (2 Bft)
11.06.2013 04:00 12,3 C 98 % 1012,9 hPa 0,0 l/m NW 0,00 h 0 W/m 7,5 km/h (2 Bft)
11.06.2013 05:00 12,2 C 98 % 1013,2 hPa 0,0 l/m NW 0,00 h 6 W/m 5,9 km/h (2 Bft)
11.06.2013 06:00 12,3 C 98 % 1013,6 hPa 0,0 l/m NW 0,00 h 26 W/m 4,4 km/h (1 Bft)
11.06.2013 07:00 12,5 C 98 % 1014,1 hPa 0,0 l/m NW 0,00 h 47 W/m 5,1 km/h (1 Bft)
11.06.2013 08:00 12,9 C 97 % 1014,7 hPa 0,0 l/m NW 0,00 h 79 W/m 4,3 km/h (1 Bft)
11.06.2013 09:00 13,9 C 91 % 1015,2 hPa 0,0 l/m NW 0,00 h 229 W/m 6,8 km/h (2 Bft)
11.06.2013 10:00 15,2 C 83 % 1015,6 hPa 0,0 l/m O 0,33 h 360 W/m 7,8 km/h (2 Bft)
11.06.2013 11:00 16,2 C 75 % 1015,7 hPa 0,0 l/m O 0,33 h 457 W/m 6,3 km/h (2 Bft)
11.06.2013 12:00 17,2 C 70 % 1015,6 hPa 0,0 l/m O 0,42 h 491 W/m 5,9 km/h (2 Bft)
11.06.2013 13:00 17,5 C 72 % 1015,6 hPa 0,0 l/m W-SW 0,33 h 491 W/m 7,4 km/h (2 Bft)
11.06.2013 14:00 15,9 C 80 % 1015,9 hPa 0,0 l/m NW 0,00 h 177 W/m 12,9 km/h (3 Bft)
11.06.2013 15:00 15,8 C 81 % 1016,1 hPa 0,0 l/m W-SW 0,00 h 254 W/m 6,3 km/h (2 Bft)
11.06.2013 16:00 16,8 C 77 % 1016,0 hPa 0,0 l/m W-SW 0,08 h 252 W/m 4,7 km/h (1 Bft)
11.06.2013 17:00 17,0 C 76 % 1016,2 hPa 0,0 l/m W 0,08 h 190 W/m 6,4 km/h (2 Bft)
11.06.2013 18:00 15,9 C 80 % 1016,4 hPa 0,0 l/m W 0,00 h 61 W/m 8,3 km/h (2 Bft)
11.06.2013 19:00 14,7 C 84 % 1016,5 hPa 0,0 l/m W-SW 0,00 h 21 W/m 4,4 km/h (1 Bft)
11.06.2013 20:00 14,6 C 86 % 1016,7 hPa 0,0 l/m N 0,00 h 13 W/m 0,7 km/h (0 Bft)
11.06.2013 21:00 13,6 C 91 % 1017,4 hPa 0,0 l/m N 0,00 h 7 W/m 0,9 km/h (0 Bft)
11.06.2013 22:00 12,3 C 93 % 1017,9 hPa 0,0 l/m N 0,00 h 0 W/m 0,3 km/h (0 Bft)
11.06.2013 23:00 11,0 C 96 % 1018,2 hPa 0,0 l/m N 0,00 h 0 W/m 0,0 km/h (0 Bft)
12.06.2013 00:00 10,6 C 97 % 1018,4 hPa 0,0 l/m N 0,00 h 0 W/m 0,0 km/h (0 Bft)
12.06.2013 01:00 10,1 C 98 % 1018,6 hPa 0,0 l/m N 0,00 h 0 W/m 0,0 km/h (0 Bft)
12.06.2013 02:00 9,4 C 98 % 1018,8 hPa 0,0 l/m N 0,00 h 0 W/m 0,0 km/h (0 Bft)
12.06.2013 03:00 8,8 C 98 % 1018,8 hPa 0,2 l/m N 0,00 h 0 W/m 0,0 km/h (0 Bft)
12.06.2013 04:00 8,4 C 99 % 1018,9 hPa 0,0 l/m N 0,00 h 0 W/m 0,0 km/h (0 Bft)
12.06.2013 05:00 8,5 C 99 % 1018,8 hPa 0,0 l/m N 0,00 h 8 W/m 0,5 km/h (0 Bft)
12.06.2013 06:00 9,1 C 99 % 1019,0 hPa 0,0 l/m N 0,00 h 34 W/m 0,4 km/h (0 Bft)
12.06.2013 07:00 10,9 C 100 % 1019,4 hPa 0,0 l/m W-SW 0,00 h 94 W/m 2,7 km/h (1 Bft)
12.06.2013 08:00 12,7 C 98 % 1019,6 hPa 0,0 l/m SW 0,00 h 143 W/m 10,6 km/h (2 Bft)
12.06.2013 09:00 14,4 C 90 % 1019,9 hPa 0,0 l/m S-SW 0,50 h 348 W/m 9,3 km/h (2 Bft)
12.06.2013 10:00 17,2 C 79 % 1019,8 hPa 0,0 l/m S-SW 0,92 h 499 W/m 11,3 km/h (2 Bft)
12.06.2013 11:00 18,2 C 74 % 1019,9 hPa 0,0 l/m SW 0,08 h 386 W/m 10,8 km/h (2 Bft)
12.06.2013 12:00 18,8 C 63 % 1019,9 hPa 0,0 l/m SW 0,00 h 316 W/m 8,0 km/h (2 Bft)
12.06.2013 13:00 19,4 C 63 % 1019,8 hPa 0,0 l/m SW 0,00 h 351 W/m 6,9 km/h (2 Bft)
12.06.2013 14:00 20,7 C 57 % 1019,4 hPa 0,0 l/m SW 1,00 h 813 W/m 8,3 km/h (2 Bft)
12.06.2013 15:00 22,2 C 47 % 1018,9 hPa 0,0 l/m S-SW 1,00 h 809 W/m 10,1 km/h (2 Bft)
12.06.2013 16:00 22,6 C 45 % 1018,5 hPa 0,0 l/m S-SO 0,92 h 706 W/m 12,5 km/h (3 Bft)
12.06.2013 17:00 21,5 C 48 % 1018,5 hPa 0,0 l/m W-SW 0,17 h 206 W/m 7,8 km/h (2 Bft)
12.06.2013 18:00 20,8 C 51 % 1018,4 hPa 0,0 l/m W-SW 0,00 h 100 W/m 2,8 km/h (1 Bft)
12.06.2013 19:00 19,7 C 56 % 1018,3 hPa 0,0 l/m N 0,00 h 49 W/m 1,1 km/h (0 Bft)
12.06.2013 20:00 18,8 C 71 % 1018,3 hPa 0,0 l/m N 0,00 h 41 W/m 0,1 km/h (0 Bft)
12.06.2013 21:00 16,5 C 76 % 1018,4 hPa 0,0 l/m N 0,00 h 7 W/m 0,4 km/h (0 Bft)
12.06.2013 22:00 14,2 C 81 % 1018,7 hPa 0,0 l/m N 0,00 h 0 W/m 0,0 km/h (0 Bft)
12.06.2013 23:00 13,3 C 84 % 1019,0 hPa 0,0 l/m N 0,00 h 0 W/m 0,1 km/h (0 Bft)
13.06.2013 00:00 12,3 C 87 % 1018,8 hPa 0,0 l/m N 0,00 h 0 W/m 0,0 km/h (0 Bft)
13.06.2013 01:00 11,6 C 90 % 1018,5 hPa 0,0 l/m N 0,00 h 0 W/m 0,4 km/h (0 Bft)
13.06.2013 02:00 11,2 C 92 % 1018,5 hPa 0,0 l/m N 0,00 h 0 W/m 0,0 km/h (0 Bft)
13.06.2013 03:00 10,6 C 93 % 1018,2 hPa 0,0 l/m N 0,00 h 0 W/m 0,0 km/h (0 Bft)
13.06.2013 04:00 10,3 C 94 % 1018,1 hPa 0,0 l/m N 0,00 h 0 W/m 0,0 km/h (0 Bft)
13.06.2013 05:00 10,2 C 94 % 1018,0 hPa 0,0 l/m N 0,00 h 10 W/m 0,0 km/h (0 Bft)
13.06.2013 06:00 10,9 C 95 % 1018,2 hPa 0,0 l/m N 0,00 h 46 W/m 0,3 km/h (0 Bft)
13.06.2013 07:00 12,9 C 91 % 1018,3 hPa 0,0 l/m N 0,25 h 155 W/m 0,0 km/h (0 Bft)
13.06.2013 08:00 15,3 C 82 % 1018,0 hPa 0,0 l/m SW 0,92 h 315 W/m 3,8 km/h (1 Bft)
13.06.2013 09:00 18,2 C 72 % 1017,8 hPa 0,0 l/m SW 1,00 h 539 W/m 8,4 km/h (2 Bft)
13.06.2013 10:00 20,6 C 64 % 1017,2 hPa 0,0 l/m S 1,00 h 677 W/m 9,7 km/h (2 Bft)
13.06.2013 11:00 22,4 C 59 % 1016,6 hPa 0,0 l/m S-SW 1,00 h 808 W/m 11,0 km/h (2 Bft)
13.06.2013 12:00 23,9 C 56 % 1015,7 hPa 0,0 l/m S-SW 1,00 h 868 W/m 11,7 km/h (2 Bft)
13.06.2013 13:00 25,2 C 53 % 1014,9 hPa 0,0 l/m S 1,00 h 909 W/m 11,3 km/h (2 Bft)
13.06.2013 14:00 26,2 C 49 % 1014,0 hPa 0,0 l/m S 1,00 h 894 W/m 11,8 km/h (2 Bft)
13.06.2013 15:00 27,1 C 44 % 1013,3 hPa 0,0 l/m SW 1,00 h 832 W/m 10,9 km/h (2 Bft)
13.06.2013 16:00 27,4 C 42 % 1012,7 hPa 0,0 l/m W 1,00 h 726 W/m 9,1 km/h (2 Bft)
13.06.2013 17:00 27,4 C 42 % 1012,0 hPa 0,0 l/m W-SW 1,00 h 592 W/m 9,7 km/h (2 Bft)
13.06.2013 18:00 27,0 C 43 % 1011,1 hPa 0,0 l/m W-SW 1,00 h 430 W/m 10,2 km/h (2 Bft)
13.06.2013 19:00 25,7 C 48 % 1010,8 hPa 0,0 l/m W-SW 1,00 h 247 W/m 9,8 km/h (2 Bft)
13.06.2013 20:00 23,1 C 59 % 1011,0 hPa 0,0 l/m W-SW 0,25 h 43 W/m 3,5 km/h (1 Bft)
13.06.2013 21:00 19,8 C 74 % 1011,2 hPa 0,0 l/m N 0,00 h 8 W/m 0,4 km/h (0 Bft)
13.06.2013 22:00 20,0 C 72 % 1011,9 hPa 0,0 l/m W-SW 0,00 h 0 W/m 14,6 km/h (3 Bft)
13.06.2013 23:00 17,0 C 73 % 1014,4 hPa 0,0 l/m N-NW 0,00 h 0 W/m 29,9 km/h (5 Bft)
14.06.2013 00:00 14,8 C 84 % 1016,4 hPa 1,8 l/m W-NW 0,00 h 0 W/m 10,7 km/h (2 Bft)
14.06.2013 01:00 13,6 C 92 % 1018,2 hPa 0,8 l/m W-SW 0,00 h 0 W/m 13,3 km/h (3 Bft)
14.06.2013 02:00 13,0 C 95 % 1018,6 hPa 2,8 l/m W 0,00 h 0 W/m 7,4 km/h (2 Bft)
14.06.2013 03:00 12,8 C 96 % 1018,6 hPa 1,8 l/m W 0,00 h 0 W/m 7,4 km/h (2 Bft)
14.06.2013 04:00 11,9 C 96 % 1018,6 hPa 0,8 l/m N-NO 0,00 h 0 W/m 10,1 km/h (2 Bft)
14.06.2013 05:00 10,9 C 97 % 1019,0 hPa 0,0 l/m N 0,00 h 9 W/m 9,9 km/h (2 Bft)
14.06.2013 06:00 10,7 C 94 % 1019,3 hPa 0,0 l/m N 0,00 h 29 W/m 9,5 km/h (2 Bft)
14.06.2013 07:00 11,1 C 92 % 1019,6 hPa 0,0 l/m N 0,00 h 72 W/m 6,7 km/h (2 Bft)
14.06.2013 08:00 11,7 C 88 % 1019,6 hPa 0,0 l/m N-NO 0,00 h 137 W/m 6,7 km/h (2 Bft)
14.06.2013 09:00 12,3 C 85 % 1019,3 hPa 0,0 l/m O-NO 0,00 h 138 W/m 9,5 km/h (2 Bft)
14.06.2013 10:00 13,5 C 78 % 1018,8 hPa 0,0 l/m NO 0,33 h 393 W/m 12,9 km/h (3 Bft)
14.06.2013 11:00 14,2 C 76 % 1018,4 hPa 0,0 l/m O-NO 0,00 h 303 W/m 14,0 km/h (3 Bft)
14.06.2013 12:00 14,5 C 78 % 1018,1 hPa 0,0 l/m O-SO 0,00 h 230 W/m 15,8 km/h (3 Bft)
14.06.2013 13:00 14,8 C 77 % 1017,6 hPa 0,0 l/m O 0,00 h 217 W/m 15,0 km/h (3 Bft)
14.06.2013 14:00 15,7 C 74 % 1016,9 hPa 0,0 l/m O-NO 0,00 h 304 W/m 13,7 km/h (3 Bft)
14.06.2013 15:00 16,4 C 72 % 1016,5 hPa 0,0 l/m O-SO 0,00 h 282 W/m 13,2 km/h (3 Bft)
14.06.2013 16:00 16,9 C 71 % 1015,6 hPa 0,0 l/m O-NO 0,17 h 239 W/m 13,6 km/h (3 Bft)
14.06.2013 17:00 16,9 C 72 % 1015,3 hPa 0,0 l/m O-NO 0,08 h 174 W/m 12,6 km/h (3 Bft)
14.06.2013 18:00 17,0 C 73 % 1015,0 hPa 0,0 l/m O-NO 0,08 h 76 W/m 11,0 km/h (2 Bft)
14.06.2013 19:00 16,3 C 78 % 1015,3 hPa 0,0 l/m O-SO 0,00 h 43 W/m 5,3 km/h (1 Bft)
14.06.2013 20:00 15,8 C 81 % 1015,4 hPa 0,0 l/m O-SO 0,00 h 16 W/m 3,3 km/h (1 Bft)
14.06.2013 21:00 15,2 C 83 % 1015,8 hPa 0,0 l/m N 0,00 h 5 W/m 0,9 km/h (0 Bft)
14.06.2013 22:00 14,9 C 86 % 1016,1 hPa 0,0 l/m N 0,00 h 0 W/m 0,4 km/h (0 Bft)
14.06.2013 23:00 14,5 C 90 % 1015,9 hPa 0,0 l/m N 0,00 h 0 W/m 0,4 km/h (0 Bft)
15.06.2013 00:00 13,6 C 94 % 1015,6 hPa 0,0 l/m N 0,00 h 0 W/m 0,1 km/h (0 Bft)
15.06.2013 01:00 12,1 C 96 % 1015,4 hPa 0,0 l/m N 0,00 h 0 W/m 0,0 km/h (0 Bft)
15.06.2013 02:00 11,1 C 97 % 1015,1 hPa 0,0 l/m N 0,00 h 0 W/m 0,0 km/h (0 Bft)
15.06.2013 03:00 10,6 C 98 % 1014,7 hPa 0,0 l/m N 0,00 h 0 W/m 0,0 km/h (0 Bft)
15.06.2013 04:00 10,5 C 98 % 1014,5 hPa 0,0 l/m N 0,00 h 0 W/m 0,0 km/h (0 Bft)
15.06.2013 05:00 11,1 C 98 % 1014,5 hPa 0,0 l/m N 0,08 h 12 W/m 0,0 km/h (0 Bft)
15.06.2013 06:00 11,7 C 98 % 1014,4 hPa 0,0 l/m N 0,00 h 42 W/m 0,0 km/h (0 Bft)
15.06.2013 07:00 13,0 C 97 % 1014,4 hPa 0,0 l/m N 0,08 h 99 W/m 1,3 km/h (1 Bft)
15.06.2013 08:00 14,6 C 94 % 1014,7 hPa 0,0 l/m S-SW 0,00 h 141 W/m 3,6 km/h (1 Bft)
15.06.2013 09:00 16,2 C 91 % 1014,8 hPa 0,0 l/m S-SW 0,17 h 262 W/m 12,2 km/h (2 Bft)
15.06.2013 10:00 18,2 C 87 % 1014,7 hPa 0,0 l/m SW 0,75 h 565 W/m 14,5 km/h (3 Bft)
15.06.2013 11:00 20,8 C 72 % 1014,3 hPa 0,0 l/m SW 1,00 h 785 W/m 20,0 km/h (4 Bft)
15.06.2013 12:00 22,1 C 63 % 1014,2 hPa 0,0 l/m W-SW 0,92 h 828 W/m 26,1 km/h (4 Bft)
15.06.2013 13:00 23,0 C 61 % 1014,0 hPa 0,0 l/m W-SW 1,00 h 925 W/m 26,2 km/h (4 Bft)
15.06.2013 14:00 24,1 C 56 % 1013,6 hPa 0,0 l/m W-SW 1,00 h 884 W/m 28,7 km/h (4 Bft)
15.06.2013 15:00 24,7 C 54 % 1013,1 hPa 0,0 l/m W-SW 1,00 h 787 W/m 23,9 km/h (4 Bft)
15.06.2013 16:00 25,0 C 53 % 1012,8 hPa 0,0 l/m W-SW 0,83 h 616 W/m 20,1 km/h (4 Bft)
15.06.2013 17:00 24,7 C 53 % 1012,5 hPa 0,0 l/m W-SW 0,83 h 465 W/m 22,4 km/h (4 Bft)
15.06.2013 18:00 23,5 C 57 % 1012,3 hPa 0,0 l/m W-NW 0,33 h 184 W/m 14,5 km/h (3 Bft)
15.06.2013 19:00 22,7 C 56 % 1012,9 hPa 0,0 l/m W-NW 0,00 h 80 W/m 13,6 km/h (3 Bft)
15.06.2013 20:00 21,2 C 56 % 1013,3 hPa 0,0 l/m W-NW 0,00 h 31 W/m 13,5 km/h (3 Bft)
15.06.2013 21:00 20,3 C 57 % 1013,8 hPa 0,0 l/m W-NW 0,08 h 10 W/m 11,8 km/h (2 Bft)
15.06.2013 22:00 18,7 C 64 % 1014,2 hPa 0,0 l/m W-NW 0,00 h 0 W/m 6,4 km/h (2 Bft)
15.06.2013 23:00 17,9 C 67 % 1014,3 hPa 0,0 l/m W-NW 0,00 h 0 W/m 4,9 km/h (1 Bft)
16.06.2013 00:00 16,9 C 73 % 1014,8 hPa 0,0 l/m W-NW 0,00 h 0 W/m 5,5 km/h (1 Bft)
16.06.2013 01:00 17,6 C 66 % 1014,9 hPa 0,0 l/m W-SW 0,00 h 0 W/m 6,8 km/h (2 Bft)
16.06.2013 02:00 16,6 C 80 % 1014,8 hPa 0,0 l/m W-SW 0,00 h 0 W/m 4,3 km/h (1 Bft)
16.06.2013 03:00 16,1 C 81 % 1014,7 hPa 0,0 l/m N 0,00 h 0 W/m 0,9 km/h (0 Bft)
16.06.2013 04:00 15,7 C 88 % 1014,9 hPa 0,2 l/m N 0,00 h 0 W/m 1,3 km/h (1 Bft)
16.06.2013 05:00 14,7 C 94 % 1015,0 hPa 0,0 l/m SW 0,00 h 8 W/m 2,4 km/h (1 Bft)
16.06.2013 06:00 14,2 C 93 % 1015,3 hPa 0,0 l/m SW 0,00 h 23 W/m 9,4 km/h (2 Bft)
16.06.2013 07:00 14,4 C 92 % 1015,4 hPa 0,0 l/m SW 0,00 h 96 W/m 5,1 km/h (1 Bft)
16.06.2013 08:00 15,2 C 89 % 1015,4 hPa 0,0 l/m N 0,00 h 106 W/m 2,3 km/h (1 Bft)
16.06.2013 09:00 16,9 C 81 % 1015,1 hPa 0,0 l/m S-SW 0,58 h 401 W/m 3,1 km/h (1 Bft)
16.06.2013 10:00 19,0 C 70 % 1014,8 hPa 0,0 l/m SW 0,67 h 480 W/m 7,6 km/h (2 Bft)
16.06.2013 11:00 20,8 C 58 % 1014,6 hPa 0,0 l/m S 0,92 h 795 W/m 9,4 km/h (2 Bft)
16.06.2013 12:00 22,4 C 57 % 1014,4 hPa 0,0 l/m S 1,00 h 873 W/m 10,7 km/h (2 Bft)
16.06.2013 13:00 23,5 C 58 % 1014,0 hPa 0,0 l/m S-SW 1,00 h 904 W/m 12,5 km/h (3 Bft)
16.06.2013 14:00 24,8 C 56 % 1013,2 hPa 0,0 l/m W-SW 1,00 h 887 W/m 13,4 km/h (3 Bft)
16.06.2013 15:00 26,0 C 51 % 1012,6 hPa 0,0 l/m W-SW 1,00 h 830 W/m 16,2 km/h (3 Bft)
16.06.2013 16:00 26,4 C 49 % 1012,3 hPa 0,0 l/m SW 1,00 h 727 W/m 14,5 km/h (3 Bft)
16.06.2013 17:00 26,7 C 48 % 1011,9 hPa 0,0 l/m W-SW 1,00 h 581 W/m 10,5 km/h (2 Bft)
16.06.2013 18:00 26,3 C 50 % 1011,6 hPa 0,0 l/m W-SW 1,00 h 412 W/m 7,8 km/h (2 Bft)
16.06.2013 19:00 25,5 C 54 % 1011,6 hPa 0,0 l/m W-SW 1,00 h 237 W/m 4,5 km/h (1 Bft)
16.06.2013 20:00 23,2 C 68 % 1011,6 hPa 0,0 l/m N 0,25 h 56 W/m 0,5 km/h (0 Bft)
16.06.2013 21:00 20,4 C 76 % 1011,8 hPa 0,0 l/m N 0,08 h 8 W/m 0,5 km/h (0 Bft)
16.06.2013 22:00 19,0 C 80 % 1012,3 hPa 0,0 l/m N 0,00 h 0 W/m 0,1 km/h (0 Bft)
16.06.2013 23:00 18,1 C 85 % 1012,3 hPa 0,0 l/m N 0,00 h 0 W/m 0,4 km/h (0 Bft)
Min-Datum _ 12.06.13 13.06.13 10.06.13 - - - - 10.06.13
_ Min-Zeit 04:50 17:00 02:15 - - - - 00:00
Minimum _ 8,2 C 38 % 1004,8 hPa - - - - 0,0 km/h (0 Bft)
Max-Datum _ 13.06.13 12.06.13 12.06.13 10.06.13 - 10.06.13 10.06.13 13.06.13
_ Max-Zeit 16:50 06:50 09:50 02:50 - 12:15 14:15 23:15
Maximum _ 27,8 C 100 % 1020,0 hPa 11,6 l/m - 0,08 h 1097 W/m 40,2 km/h
N (6 Bft)
Durchschnitt _ 16,2 C 80 % 1014,7 hPa #68,4 l/m W-SW #38:45 h 301 W/m 7,8 km/h (2 Bft)